createdAt,value
2022-10-02T00:04:12.125Z,100615.09
2022-10-02T00:09:22.646Z,100623.72
2022-10-02T00:14:26.661Z,100625.97
2022-10-02T00:19:28.538Z,100659.34
2022-10-02T00:24:51.080Z,100646.53
2022-10-02T00:29:56.169Z,100661.50
2022-10-02T00:35:16.628Z,100659.09
2022-10-02T00:40:50.223Z,100677.88
2022-10-02T00:46:35.882Z,100685.88
2022-10-02T00:51:52.188Z,100694.50
2022-10-02T00:57:18.835Z,100688.66
2022-10-02T01:02:26.262Z,100686.03
2022-10-02T01:07:28.587Z,100681.25
2022-10-02T01:12:30.236Z,100680.03
2022-10-02T01:17:34.404Z,100679.19
2022-10-02T01:22:45.566Z,100675.38
2022-10-02T01:27:47.847Z,100686.63
2022-10-02T01:32:53.276Z,100677.88
2022-10-02T01:37:55.632Z,100684.25
2022-10-02T01:43:08.762Z,100696.69
2022-10-02T01:48:21.935Z,100684.59
2022-10-02T01:53:49.759Z,100681.34
2022-10-02T01:59:11.599Z,100688.03
2022-10-02T02:04:33.337Z,100686.97
2022-10-02T02:09:50.760Z,100669.97
2022-10-02T02:15:00.320Z,100663.16
2022-10-02T02:20:13.744Z,100665.06
2022-10-02T02:25:28.003Z,100677.78
2022-10-02T02:30:31.755Z,100671.78
2022-10-02T02:35:39.289Z,100666.88
2022-10-02T02:40:45.508Z,100672.97
2022-10-02T02:46:01.266Z,100682.44
2022-10-02T02:51:15.788Z,100679.19
2022-10-02T02:56:20.633Z,100679.78
2022-10-02T03:01:22.654Z,100683.88
2022-10-02T03:06:33.682Z,100686.63
2022-10-02T03:11:41.654Z,100686.38
2022-10-02T03:17:01.465Z,100688.28
2022-10-02T03:22:31.421Z,100688.28
2022-10-02T03:27:36.863Z,100672.03
2022-10-02T03:32:41.945Z,100681.50
2022-10-02T03:37:48.027Z,100681.56
2022-10-02T03:42:49.824Z,100682.53
2022-10-02T03:47:51.360Z,100692.25
2022-10-02T03:52:53.633Z,100698.22
2022-10-02T03:57:57.597Z,100713.56
2022-10-02T04:03:03.151Z,100702.31
2022-10-02T04:08:18.968Z,100700.75
2022-10-02T04:13:35.202Z,100693.69
2022-10-02T04:18:48.250Z,100684.47
2022-10-02T04:23:56.699Z,100669.97
2022-10-02T04:29:22.012Z,100671.44
2022-10-02T04:34:23.552Z,100667.59
2022-10-02T04:39:51.131Z,100662.69
2022-10-02T04:45:15.632Z,100656.13
2022-10-02T04:50:32.475Z,100665.94
2022-10-02T04:56:03.093Z,100664.72
2022-10-02T05:01:15.016Z,100667.72
2022-10-02T05:06:31.578Z,100665.19
2022-10-02T05:11:47.563Z,100669.03
2022-10-02T05:17:10.365Z,100682.28
2022-10-02T05:22:21.412Z,100695.69
2022-10-02T05:27:35.934Z,100697.13
2022-10-02T05:33:01.933Z,100697.38
2022-10-02T05:38:36.157Z,100706.69
2022-10-02T05:43:48.620Z,100710.59
2022-10-02T05:48:58.886Z,100706.41
2022-10-02T05:54:07.054Z,100696.97
2022-10-02T05:59:20.341Z,100677.34
2022-10-02T06:04:33.630Z,100675.69
2022-10-02T06:09:35.127Z,100660.84
2022-10-02T06:14:41.958Z,100650.94
2022-10-02T06:20:04.649Z,100667.31
2022-10-02T06:25:26.597Z,100666.59
2022-10-02T06:30:31.957Z,100677.34
2022-10-02T06:35:51.697Z,100680.47
2022-10-02T06:41:06.383Z,100655.16
2022-10-02T06:46:24.889Z,100660.16
2022-10-02T06:52:16.927Z,100656.94
2022-10-02T06:57:40.918Z,100656.47
2022-10-02T07:02:55.336Z,100655.75
2022-10-02T07:08:29.288Z,100640.31
2022-10-02T07:13:57.249Z,100654.22
2022-10-02T07:19:07.913Z,100649.66
2022-10-02T07:24:47.127Z,100652.53
2022-10-02T07:29:59.619Z,100636.50
2022-10-02T07:35:20.039Z,100639.84
2022-10-02T07:40:29.501Z,100637.69
2022-10-02T07:45:44.202Z,100627.06
2022-10-02T07:51:27.169Z,100617.31
2022-10-02T07:56:29.976Z,100615.88
2022-10-02T08:01:36.431Z,100613.84
2022-10-02T08:06:39.056Z,100616.75
2022-10-02T08:11:49.637Z,100627.63
2022-10-02T08:16:57.846Z,100620.84
2022-10-02T08:22:14.849Z,100616.91
2022-10-02T08:27:22.784Z,100607.91
2022-10-02T08:32:34.596Z,100608.13
2022-10-02T08:38:10.218Z,100628.03
2022-10-02T08:43:17.547Z,100635.75
2022-10-02T08:48:51.150Z,100640.97
2022-10-02T08:54:07.782Z,100641.03
2022-10-02T08:59:36.028Z,100634.59
2022-10-02T09:05:00.970Z,100621.31
2022-10-02T09:10:45.691Z,100621.16
2022-10-02T09:15:58.787Z,100629.28
2022-10-02T09:21:41.864Z,100620.09
2022-10-02T09:27:02.127Z,100628.94
2022-10-02T09:32:34.634Z,100631.72
2022-10-02T09:37:54.895Z,100643.66
2022-10-02T09:43:11.675Z,100622.25
2022-10-02T09:48:16.179Z,100640.81
2022-10-02T09:53:55.812Z,100633.00
2022-10-02T09:59:34.720Z,100664.25
2022-10-02T10:05:06.060Z,100675.84
2022-10-02T10:10:42.204Z,100636.88
2022-10-02T10:16:22.322Z,100660.19
2022-10-02T10:21:48.789Z,100674.28
2022-10-02T10:27:08.303Z,100685.88
2022-10-02T10:32:43.883Z,100676.06
2022-10-02T10:38:32.906Z,100691.75
2022-10-02T10:43:56.413Z,100681.00
2022-10-02T10:49:30.355Z,100689.97
2022-10-02T10:54:34.531Z,100693.56
2022-10-02T11:00:01.047Z,100707.09
2022-10-02T11:05:24.387Z,100695.13
2022-10-02T11:10:58.271Z,100690.22
2022-10-02T11:16:07.330Z,100684.94
2022-10-02T11:21:20.028Z,100678.38
2022-10-02T11:26:39.552Z,100668.44
2022-10-02T11:31:47.085Z,100663.88
2022-10-02T11:36:48.703Z,100665.56
2022-10-02T11:42:06.619Z,100653.38
2022-10-02T11:47:18.546Z,100655.50
2022-10-02T11:52:26.216Z,100656.81
2022-10-02T11:57:40.327Z,100655.94
2022-10-02T12:02:59.906Z,100679.31
2022-10-02T12:08:41.219Z,100686.22
2022-10-02T12:14:04.545Z,100687.72
2022-10-02T12:19:37.079Z,100694.03
2022-10-02T12:25:04.671Z,100682.25
2022-10-02T12:30:18.504Z,100692.47
2022-10-02T12:35:23.079Z,100707.50
2022-10-02T12:40:52.595Z,100694.66
2022-10-02T12:46:13.611Z,100687.03
2022-10-02T12:51:30.040Z,100690.56
2022-10-02T12:56:45.761Z,100693.69
2022-10-02T13:01:53.023Z,100693.72
2022-10-02T13:07:13.542Z,100674.38
2022-10-02T13:12:21.151Z,100674.56
2022-10-02T13:17:29.165Z,100679.97
2022-10-02T13:22:39.780Z,100683.41
2022-10-02T13:28:23.936Z,100694.63
2022-10-02T13:33:42.410Z,100697.44
2022-10-02T13:39:04.884Z,100689.28
2022-10-02T13:44:18.342Z,100681.75
2022-10-02T13:49:30.689Z,100667.66
2022-10-02T13:54:38.341Z,100671.50
2022-10-02T14:00:02.637Z,100668.16
2022-10-02T14:05:27.340Z,100653.91
2022-10-02T14:11:14.701Z,100678.91
2022-10-02T14:16:30.545Z,100672.47
2022-10-02T14:21:38.991Z,100663.72
2022-10-02T14:27:14.521Z,100649.63
2022-10-02T14:32:42.677Z,100651.78
2022-10-02T14:38:13.914Z,100659.69
2022-10-02T14:43:18.620Z,100657.75
2022-10-02T14:48:51.877Z,100658.94
2022-10-02T14:54:01.659Z,100681.91
2022-10-02T14:59:40.903Z,100692.44
2022-10-02T15:04:55.091Z,100693.75
2022-10-02T15:10:06.321Z,100698.78
2022-10-02T15:15:13.713Z,100697.94
2022-10-02T15:20:38.296Z,100677.09
2022-10-02T15:26:12.970Z,100691.94
2022-10-02T15:32:02.052Z,100705.75
2022-10-02T15:37:13.033Z,100705.53
2022-10-02T15:42:47.008Z,100699.78
2022-10-02T15:48:23.300Z,100703.13
2022-10-02T15:53:45.762Z,100701.34
2022-10-02T15:59:40.110Z,100711.84
2022-10-02T16:05:00.190Z,100745.72
2022-10-02T16:10:08.380Z,100738.25
2022-10-02T16:15:34.469Z,100755.59
2022-10-02T16:20:41.874Z,100744.03
2022-10-02T16:26:08.305Z,100753.81
2022-10-02T16:31:33.393Z,100794.22
2022-10-02T16:36:57.022Z,100796.63
2022-10-02T16:42:14.265Z,100783.63
2022-10-02T16:47:27.620Z,100792.47
2022-10-02T16:52:45.633Z,100781.72
2022-10-02T16:57:54.268Z,100783.84
2022-10-02T17:03:19.157Z,100800.97
2022-10-02T17:08:45.868Z,100841.19
2022-10-02T17:14:19.562Z,100851.22
2022-10-02T17:19:34.281Z,100875.53
2022-10-02T17:24:48.832Z,100873.00
2022-10-02T17:30:16.476Z,100865.34
2022-10-02T17:35:31.647Z,100874.06
2022-10-02T17:40:59.948Z,100872.50
2022-10-02T17:46:19.677Z,100868.16
2022-10-02T17:57:01.430Z,100882.34
2022-10-02T18:02:06.264Z,100905.78
2022-10-02T18:07:52.746Z,100914.72
2022-10-02T18:13:14.982Z,100915.94
2022-10-02T18:18:19.523Z,100912.97
2022-10-02T18:23:21.293Z,100893.72
2022-10-02T18:28:53.701Z,100888.91
2022-10-02T18:34:06.687Z,100887.38
2022-10-02T18:39:27.445Z,100897.00
2022-10-02T18:44:48.584Z,100915.22
2022-10-02T18:49:58.016Z,100911.47
2022-10-02T18:55:42.330Z,100933.66
2022-10-02T19:01:03.115Z,100938.53
2022-10-02T19:06:19.586Z,100935.16
2022-10-02T19:11:28.206Z,100932.84
2022-10-02T19:16:32.690Z,100953.66
2022-10-02T19:21:36.119Z,100974.22
2022-10-02T19:26:44.000Z,100986.03
2022-10-02T19:31:46.592Z,101001.63
2022-10-02T19:36:51.989Z,101027.53
2022-10-02T19:41:57.531Z,101036.81
2022-10-02T19:47:03.294Z,101052.06
2022-10-02T19:52:25.408Z,101060.78
2022-10-02T19:57:33.721Z,101080.06
2022-10-02T20:02:40.402Z,101076.84
2022-10-02T20:07:42.972Z,101087.34
2022-10-02T20:12:54.517Z,101107.00
2022-10-02T20:17:56.076Z,101110.56
2022-10-02T20:23:01.698Z,101105.22
2022-10-02T20:28:22.741Z,101113.69
2022-10-02T20:33:40.270Z,101112.22
2022-10-02T20:38:50.613Z,101124.50
2022-10-02T20:44:06.192Z,101122.47
2022-10-02T20:49:25.708Z,101123.88
2022-10-02T20:54:39.522Z,101124.16
2022-10-02T21:00:15.455Z,101133.50
2022-10-02T21:05:49.669Z,101152.91
2022-10-02T21:11:15.355Z,101160.94
2022-10-02T21:16:50.301Z,101175.69
2022-10-02T21:22:01.598Z,101177.16
2022-10-02T21:27:06.964Z,101196.56
2022-10-02T21:32:11.678Z,101203.75
2022-10-02T21:37:53.567Z,101197.81
2022-10-02T21:43:32.564Z,101203.28
2022-10-02T21:49:05.202Z,101209.00
2022-10-02T21:54:24.793Z,101205.41
2022-10-02T21:59:38.395Z,101222.75
2022-10-02T22:05:01.779Z,101238.78
2022-10-02T22:10:06.300Z,101247.41
2022-10-02T22:15:27.653Z,101239.78
2022-10-02T22:20:38.234Z,101251.41
2022-10-02T22:25:57.867Z,101253.53
2022-10-02T22:31:10.853Z,101252.44
2022-10-02T22:36:24.836Z,101251.19
2022-10-02T22:41:34.162Z,101242.75
2022-10-02T22:46:47.771Z,101249.13
2022-10-02T22:52:20.664Z,101250.59
2022-10-02T22:57:33.356Z,101253.97
2022-10-02T23:02:56.184Z,101251.00
2022-10-02T23:08:17.764Z,101261.97
2022-10-02T23:13:40.643Z,101258.53
2022-10-02T23:18:49.259Z,101251.72
2022-10-02T23:23:59.758Z,101249.94
2022-10-02T23:29:19.340Z,101245.22
2022-10-02T23:34:34.234Z,101261.59
2022-10-02T23:39:45.386Z,101263.19
2022-10-02T23:45:06.190Z,101259.94
2022-10-02T23:50:22.751Z,101280.25
2022-10-02T23:55:57.202Z,101287.31
